createdAt,value
2018-09-18T00:02:15.842Z,95798.25
2018-09-18T00:04:42.442Z,95799.68
2018-09-18T00:07:09.428Z,95797.53
2018-09-18T00:09:36.072Z,95794.38
2018-09-18T00:12:02.710Z,95792.32
2018-09-18T00:14:29.351Z,95793.37
2018-09-18T00:16:55.984Z,95793.42
2018-09-18T00:19:22.683Z,95795.86
2018-09-18T00:21:49.325Z,95798.81
2018-09-18T00:24:15.961Z,95793.55
2018-09-18T00:26:42.620Z,95798.23
2018-09-18T00:29:09.362Z,95792.70
2018-09-18T00:31:36.717Z,95794.23
2018-09-18T00:34:04.685Z,95790.95
2018-09-18T00:36:30.042Z,95800.44
2018-09-18T00:38:56.733Z,95797.14
2018-09-18T00:41:24.857Z,95795.78
2018-09-18T00:43:50.085Z,95802.22
2018-09-18T00:46:18.194Z,95795.28
2018-09-18T00:48:43.411Z,95791.36
2018-09-18T00:51:10.067Z,95793.52
2018-09-18T00:53:36.764Z,95792.61
2018-09-18T00:56:04.734Z,95788.95
2018-09-18T00:58:30.087Z,95781.63
2018-09-18T01:00:56.871Z,95784.79
2018-09-18T01:03:23.576Z,95779.13
2018-09-18T01:05:50.216Z,95783.17
2018-09-18T01:08:16.991Z,95784.43
2018-09-18T01:10:43.636Z,95784.91
2018-09-18T01:13:11.482Z,95785.19
2018-09-18T01:15:36.955Z,95783.55
2018-09-18T01:18:03.601Z,95791.61
2018-09-18T01:20:30.237Z,95790.62
2018-09-18T01:22:56.897Z,95793.52
2018-09-18T01:25:23.587Z,95784.55
2018-09-18T01:27:50.233Z,95785.80
2018-09-18T01:30:18.350Z,95785.56
2018-09-18T01:32:43.501Z,95794.77
2018-09-18T01:35:10.268Z,95785.58
2018-09-18T01:37:36.942Z,95785.45
2018-09-18T01:40:03.584Z,95784.19
2018-09-18T01:42:30.223Z,95783.06
2018-09-18T01:44:56.994Z,95785.47
2018-09-18T01:47:23.675Z,95786.09
2018-09-18T01:49:50.351Z,95779.91
2018-09-18T01:52:16.980Z,95782.45
2018-09-18T01:54:43.684Z,95782.06
2018-09-18T01:57:10.329Z,95783.58
2018-09-18T01:59:36.977Z,95782.05
2018-09-18T02:02:03.630Z,95785.73
2018-09-18T02:04:30.312Z,95783.44
2018-09-18T02:06:56.949Z,95776.12
2018-09-18T02:09:23.642Z,95779.53
2018-09-18T02:11:50.278Z,95776.61
2018-09-18T02:14:16.931Z,95779.41
2018-09-18T02:16:43.588Z,95784.58
2018-09-18T02:19:10.225Z,95788.63
2018-09-18T02:21:37.032Z,95783.32
2018-09-18T02:24:03.670Z,95780.55
2018-09-18T02:26:30.344Z,95787.10
2018-09-18T02:28:57.084Z,95785.09
2018-09-18T02:31:23.859Z,95788.63
2018-09-18T02:33:50.496Z,95786.23
2018-09-18T02:36:17.235Z,95787.48
2018-09-18T02:38:43.897Z,95784.84
2018-09-18T02:41:10.591Z,95785.34
2018-09-18T02:43:37.266Z,95782.70
2018-09-18T02:46:03.902Z,95783.08
2018-09-18T02:48:30.591Z,95782.19
2018-09-18T02:50:57.317Z,95787.60
2018-09-18T02:53:23.922Z,95786.86
2018-09-18T02:55:50.573Z,95788.64
2018-09-18T02:58:17.277Z,95790.27
2018-09-18T03:00:44.017Z,95789.12
2018-09-18T03:03:10.693Z,95785.09
2018-09-18T03:05:37.419Z,95786.86
2018-09-18T03:08:04.104Z,95788.63
2018-09-18T03:10:30.738Z,95786.35
2018-09-18T03:12:57.418Z,95794.06
2018-09-18T03:15:24.054Z,95782.45
2018-09-18T03:17:50.786Z,95792.92
2018-09-18T03:20:17.435Z,95787.61
2018-09-18T03:22:44.116Z,95782.06
2018-09-18T03:25:10.791Z,95790.39
2018-09-18T03:27:37.442Z,95789.88
2018-09-18T03:30:04.082Z,95798.10
2018-09-18T03:32:30.816Z,95795.95
2018-09-18T03:34:57.453Z,95795.70
2018-09-18T03:37:24.091Z,95797.59
2018-09-18T03:39:50.765Z,95795.31
2018-09-18T03:42:17.410Z,95798.97
2018-09-18T03:44:44.106Z,95799.25
2018-09-18T03:47:15.763Z,95803.41
2018-09-18T03:49:41.987Z,95803.16
2018-09-18T03:52:08.668Z,95800.50
2018-09-18T03:54:35.318Z,95798.61
2018-09-18T03:57:02.005Z,95804.42
2018-09-18T03:59:28.642Z,95805.91
2018-09-18T04:01:55.322Z,95806.05
2018-09-18T04:04:22.009Z,95814.27
2018-09-18T04:06:48.660Z,95814.50
2018-09-18T04:09:15.305Z,95813.39
2018-09-18T04:11:41.948Z,95806.45
2018-09-18T04:14:08.589Z,95813.37
2018-09-18T04:16:35.346Z,95815.39
2018-09-18T04:19:02.001Z,95814.02
2018-09-18T04:21:28.603Z,95811.21
2018-09-18T04:23:55.296Z,95821.09
2018-09-18T04:26:25.385Z,95816.66
2018-09-18T04:28:50.617Z,95817.42
2018-09-18T04:31:17.256Z,95821.34
2018-09-18T04:33:43.929Z,95832.57
2018-09-18T04:36:10.529Z,95826.00
2018-09-18T04:38:37.306Z,95828.53
2018-09-18T04:41:03.918Z,95838.02
2018-09-18T04:43:30.603Z,95841.67
2018-09-18T04:45:57.250Z,95846.09
2018-09-18T04:48:27.086Z,95844.07
2018-09-18T04:50:53.788Z,95842.67
2018-09-18T04:53:20.439Z,95852.68
2018-09-18T04:55:49.151Z,95851.78
2018-09-18T04:58:13.746Z,95857.20
2018-09-18T05:00:40.382Z,95855.05
2018-09-18T05:03:07.030Z,95855.71
2018-09-18T05:05:33.813Z,95860.77
2018-09-18T05:08:00.405Z,95865.03
2018-09-18T05:10:27.064Z,95858.98
2018-09-18T05:12:53.709Z,95862.13
2018-09-18T05:15:20.350Z,95866.19
2018-09-18T05:17:47.071Z,95867.70
2018-09-18T05:20:13.730Z,95855.58
2018-09-18T05:22:40.367Z,95861.38
2018-09-18T05:25:07.016Z,95861.26
2018-09-18T05:27:33.659Z,95862.24
2018-09-18T05:30:00.309Z,95867.30
2018-09-18T05:32:29.152Z,95873.23
2018-09-18T05:34:53.642Z,95872.23
2018-09-18T05:37:20.285Z,95861.89
2018-09-18T05:39:46.934Z,95864.79
2018-09-18T05:42:13.640Z,95870.08
2018-09-18T05:44:40.263Z,95873.23
2018-09-18T05:47:06.905Z,95868.52
2018-09-18T05:49:33.559Z,95869.23
2018-09-18T05:52:00.335Z,95874.33
2018-09-18T05:54:27.051Z,95879.61
2018-09-18T05:56:53.713Z,95882.65
2018-09-18T05:59:20.349Z,95874.84
2018-09-18T06:01:47.090Z,95875.94
2018-09-18T06:04:13.745Z,95882.14
2018-09-18T06:06:40.387Z,95884.55
2018-09-18T06:09:07.044Z,95884.20
2018-09-18T06:11:33.689Z,95885.19
2018-09-18T06:14:00.413Z,95887.56
2018-09-18T06:16:27.169Z,95883.38
2018-09-18T06:18:53.832Z,95893.52
2018-09-18T06:21:20.471Z,95884.42
2018-09-18T06:23:47.188Z,95889.98
2018-09-18T06:26:13.999Z,95884.52
2018-09-18T06:28:40.584Z,95888.72
2018-09-18T06:31:07.294Z,95882.50
2018-09-18T06:33:34.357Z,95886.58
2018-09-18T06:36:01.005Z,95883.42
2018-09-18T06:38:27.649Z,95885.06
2018-09-18T06:40:54.315Z,95882.53
2018-09-18T06:43:21.058Z,95877.58
2018-09-18T06:45:47.766Z,95878.05
2018-09-18T06:48:14.426Z,95877.15
2018-09-18T06:50:41.082Z,95873.52
2018-09-18T06:53:07.774Z,95872.63
2018-09-18T06:55:34.425Z,95874.36
2018-09-18T06:58:01.112Z,95875.94
2018-09-18T07:00:27.714Z,95870.24
2018-09-18T07:02:54.379Z,95873.41
2018-09-18T07:05:21.041Z,95868.23
2018-09-18T07:07:47.703Z,95870.09
2018-09-18T07:10:14.393Z,95867.83
2018-09-18T07:12:41.030Z,95868.17
2018-09-18T07:15:07.692Z,95866.30
2018-09-18T07:17:34.345Z,95873.20
2018-09-18T07:20:01.038Z,95872.92
2018-09-18T07:22:27.687Z,95872.92
2018-09-18T07:24:54.469Z,95872.61
2018-09-18T07:27:21.041Z,95876.49
2018-09-18T07:29:47.839Z,95876.58
2018-09-18T07:32:14.462Z,95875.20
2018-09-18T07:34:43.321Z,95876.11
2018-09-18T07:37:09.976Z,95867.63
2018-09-18T07:39:36.663Z,95868.13
2018-09-18T07:42:03.333Z,95871.97
2018-09-18T07:44:30.041Z,95866.91
2018-09-18T07:46:56.793Z,95873.40
2018-09-18T07:49:23.587Z,95866.49
2018-09-18T07:51:50.251Z,95867.39
2018-09-18T07:54:16.946Z,95864.50
2018-09-18T07:56:43.681Z,95862.67
2018-09-18T07:59:10.339Z,95863.70
2018-09-18T08:01:37.033Z,95857.52
2018-09-18T08:04:03.675Z,95849.66
2018-09-18T08:06:30.371Z,95848.91
2018-09-18T08:08:57.008Z,95848.05
2018-09-18T08:11:23.713Z,95850.72
2018-09-18T08:13:50.404Z,95838.84
2018-09-18T08:16:17.056Z,95844.47
2018-09-18T08:18:44.979Z,95849.28
2018-09-18T08:21:11.655Z,95848.43
2018-09-18T08:23:40.355Z,95848.38
2018-09-18T08:26:07.064Z,95846.37
2018-09-18T08:28:33.782Z,95844.86
2018-09-18T08:31:00.450Z,95842.83
2018-09-18T08:33:27.189Z,95845.26
2018-09-18T08:35:53.873Z,95839.03
2018-09-18T08:38:20.539Z,95841.84
2018-09-18T08:40:47.499Z,95840.67
2018-09-18T08:43:17.523Z,95833.06
2018-09-18T08:45:44.344Z,95831.59
2018-09-18T08:48:10.979Z,95831.45
2018-09-18T08:50:39.765Z,95824.77
2018-09-18T08:53:04.323Z,95829.53
2018-09-18T08:55:31.047Z,95821.39
2018-09-18T08:57:57.714Z,95822.64
2018-09-18T09:00:24.374Z,95821.48
2018-09-18T09:02:51.024Z,95820.26
2018-09-18T09:05:17.785Z,95821.52
2018-09-18T09:07:44.498Z,95815.97
2018-09-18T09:10:11.216Z,95810.84
2018-09-18T09:12:40.914Z,95812.17
2018-09-18T09:15:07.630Z,95818.08
2018-09-18T09:17:34.280Z,95817.20
2018-09-18T09:20:02.376Z,95812.64
2018-09-18T09:22:27.646Z,95811.23
2018-09-18T09:24:54.286Z,95811.98
2018-09-18T09:27:21.028Z,95807.05
2018-09-18T09:29:47.764Z,95805.08
2018-09-18T09:32:14.495Z,95808.25
2018-09-18T09:34:41.063Z,95797.19
2018-09-18T09:37:07.823Z,95800.14
2018-09-18T09:39:34.394Z,95791.70
2018-09-18T09:42:01.131Z,95794.47
2018-09-18T09:44:27.769Z,95778.05
2018-09-18T09:46:54.547Z,95785.52
2018-09-18T09:49:21.157Z,95779.13
2018-09-18T09:51:47.891Z,95781.09
2018-09-18T09:54:14.529Z,95774.53
2018-09-18T09:56:41.248Z,95775.79
2018-09-18T09:59:07.901Z,95770.56
2018-09-18T10:01:34.538Z,95765.63
2018-09-18T10:04:01.237Z,95768.39
2018-09-18T10:06:27.945Z,95761.39
2018-09-18T10:08:54.602Z,95766.34
2018-09-18T10:11:21.264Z,95759.94
2018-09-18T10:13:47.977Z,95761.36
2018-09-18T10:16:14.649Z,95760.77
2018-09-18T10:18:41.357Z,95749.88
2018-09-18T10:21:08.089Z,95761.50
2018-09-18T10:23:34.850Z,95760.38
2018-09-18T10:26:01.590Z,95756.94
2018-09-18T10:28:28.200Z,95748.61
2018-09-18T10:30:54.812Z,95754.27
2018-09-18T10:33:21.479Z,95747.28
2018-09-18T10:35:48.145Z,95745.08
2018-09-18T10:38:14.829Z,95739.96
2018-09-18T10:40:41.561Z,95733.66
2018-09-18T10:43:08.198Z,95731.88
2018-09-18T10:45:34.877Z,95735.98
2018-09-18T10:48:01.867Z,95728.81
2018-09-18T10:50:28.493Z,95726.17
2018-09-18T10:52:55.159Z,95724.19
2018-09-18T10:55:21.880Z,95710.67
2018-09-18T10:57:48.490Z,95703.11
2018-09-18T11:00:18.040Z,95716.20
2018-09-18T11:02:49.798Z,95716.03
2018-09-18T11:05:16.509Z,95706.27
2018-09-18T11:07:43.294Z,95701.69
2018-09-18T11:10:10.073Z,95703.48
2018-09-18T11:12:36.728Z,95701.78
2018-09-18T11:15:03.453Z,95696.72
2018-09-18T11:17:30.006Z,95689.28
2018-09-18T11:19:56.781Z,95688.64
2018-09-18T11:22:23.570Z,95689.33
2018-09-18T11:24:50.172Z,95687.84
2018-09-18T11:27:16.808Z,95678.62
2018-09-18T11:29:43.643Z,95684.11
2018-09-18T11:32:10.256Z,95684.06
2018-09-18T11:34:36.994Z,95683.61
2018-09-18T11:37:03.645Z,95675.62
2018-09-18T11:39:31.647Z,95675.27
2018-09-18T11:41:56.960Z,95672.19
2018-09-18T11:44:23.661Z,95670.95
2018-09-18T11:46:50.541Z,95664.27
2018-09-18T11:49:17.042Z,95657.08
2018-09-18T11:51:43.813Z,95657.53
2018-09-18T11:54:10.620Z,95653.34
2018-09-18T11:56:38.632Z,95656.62
2018-09-18T11:59:03.929Z,95660.28
2018-09-18T12:01:30.599Z,95653.19
2018-09-18T12:03:57.240Z,95653.52
2018-09-18T12:06:23.902Z,95650.13
2018-09-18T12:08:50.647Z,95644.76
2018-09-18T12:11:17.263Z,95636.53
2018-09-18T12:13:43.931Z,95642.08
2018-09-18T12:16:10.679Z,95641.03
2018-09-18T12:18:37.322Z,95641.02
2018-09-18T12:21:03.965Z,95636.08
2018-09-18T12:23:30.649Z,95634.53
2018-09-18T12:25:59.606Z,95630.16
2018-09-18T12:28:24.122Z,95626.27
2018-09-18T12:30:50.804Z,95623.23
2018-09-18T12:33:17.555Z,95619.31
2018-09-18T12:35:44.290Z,95622.98
2018-09-18T12:38:10.893Z,95616.25
2018-09-18T12:40:37.528Z,95617.89
2018-09-18T12:43:04.209Z,95622.20
2018-09-18T12:45:30.854Z,95611.88
2018-09-18T12:47:57.589Z,95614.54
2018-09-18T12:50:25.686Z,95617.95
2018-09-18T12:52:50.983Z,95623.75
2018-09-18T12:55:17.765Z,95607.80
2018-09-18T12:57:44.476Z,95610.05
2018-09-18T13:00:11.284Z,95604.09
2018-09-18T13:02:37.959Z,95604.51
2018-09-18T13:05:04.683Z,95600.86
2018-09-18T13:07:31.334Z,95599.12
2018-09-18T13:09:58.043Z,95596.28
2018-09-18T13:12:24.681Z,95594.03
2018-09-18T13:14:53.108Z,95590.48
2018-09-18T13:17:18.096Z,95587.09
2018-09-18T13:19:44.821Z,95585.52
2018-09-18T13:22:11.474Z,95589.82
2018-09-18T13:24:38.209Z,95588.02
2018-09-18T13:27:04.847Z,95586.38
2018-09-18T13:29:31.539Z,95588.45
2018-09-18T13:31:58.240Z,95579.18
2018-09-18T13:34:24.885Z,95581.67
2018-09-18T13:36:52.926Z,95577.75
2018-09-18T13:39:18.239Z,95577.98
2018-09-18T13:41:44.876Z,95567.44
2018-09-18T13:44:12.555Z,95570.64
2018-09-18T13:46:39.238Z,95571.48
2018-09-18T13:49:05.944Z,95569.06
2018-09-18T13:51:33.016Z,95569.64
2018-09-18T13:53:59.741Z,95565.22
2018-09-18T13:56:26.532Z,95570.73
2018-09-18T13:58:53.109Z,95568.30
2018-09-18T14:01:19.928Z,95571.63
2018-09-18T14:03:46.514Z,95573.05
2018-09-18T14:06:13.184Z,95576.49
2018-09-18T14:08:39.865Z,95571.94
2018-09-18T14:11:06.588Z,95574.20
2018-09-18T14:13:33.245Z,95569.44
2018-09-18T14:15:59.952Z,95569.78
2018-09-18T14:18:26.592Z,95563.34
2018-09-18T14:20:56.094Z,95558.66
2018-09-18T14:23:22.847Z,95562.13
2018-09-18T14:25:49.571Z,95555.53
2018-09-18T14:28:16.229Z,95563.75
2018-09-18T14:30:46.192Z,95564.00
2018-09-18T14:33:12.898Z,95561.66
2018-09-18T14:35:39.585Z,95563.81
2018-09-18T14:38:06.195Z,95559.92
2018-09-18T14:40:32.931Z,95564.01
2018-09-18T14:42:59.671Z,95562.99
2018-09-18T14:45:26.366Z,95562.05
2018-09-18T14:47:52.963Z,95565.21
2018-09-18T14:50:19.598Z,95565.30
2018-09-18T14:52:46.254Z,95569.80
2018-09-18T14:55:12.992Z,95575.23
2018-09-18T14:57:39.612Z,95575.56
2018-09-18T15:00:06.455Z,95581.63
2018-09-18T15:02:33.049Z,95578.14
2018-09-18T15:04:59.825Z,95575.38
2018-09-18T15:07:26.384Z,95582.70
2018-09-18T15:09:55.276Z,95580.46
2018-09-18T15:12:19.805Z,95579.75
2018-09-18T15:14:46.471Z,95584.14
2018-09-18T15:17:13.214Z,95585.32
2018-09-18T15:19:39.900Z,95583.73
2018-09-18T15:22:06.735Z,95584.53
2018-09-18T15:24:36.343Z,95580.52
2018-09-18T15:27:03.002Z,95589.98
2018-09-18T15:29:29.726Z,95593.78
2018-09-18T15:31:56.393Z,95589.77
2018-09-18T15:34:23.047Z,95589.59
2018-09-18T15:36:49.696Z,95592.72
2018-09-18T15:39:16.435Z,95596.14
2018-09-18T15:41:43.085Z,95594.36
2018-09-18T15:44:09.773Z,95597.16
2018-09-18T15:46:36.489Z,95599.05
2018-09-18T15:49:03.152Z,95594.65
2018-09-18T15:51:29.853Z,95599.93
2018-09-18T15:53:57.189Z,95599.38
2018-09-18T15:56:25.205Z,95597.35
2018-09-18T15:58:50.490Z,95598.48
2018-09-18T16:01:17.296Z,95599.70
2018-09-18T16:03:44.042Z,95603.42
2018-09-18T16:06:10.605Z,95600.09
2018-09-18T16:08:37.236Z,95611.59
2018-09-18T16:11:03.917Z,95612.09
2018-09-18T16:13:30.639Z,95612.55
2018-09-18T16:15:57.323Z,95606.13
2018-09-18T16:18:23.952Z,95608.02
2018-09-18T16:20:50.706Z,95605.32
2018-09-18T16:23:17.473Z,95606.70
2018-09-18T16:25:44.116Z,95611.75
2018-09-18T16:28:10.840Z,95607.20
2018-09-18T16:30:37.514Z,95616.31
2018-09-18T16:33:04.199Z,95617.16
2018-09-18T16:35:30.872Z,95618.69
2018-09-18T16:37:57.508Z,95618.38
2018-09-18T16:40:24.371Z,95619.87
2018-09-18T16:42:50.968Z,95624.39
2018-09-18T16:45:17.660Z,95623.12
2018-09-18T16:47:45.019Z,95630.82
2018-09-18T16:50:11.690Z,95634.49
2018-09-18T16:52:38.755Z,95629.42
2018-09-18T16:55:05.456Z,95638.08
2018-09-18T16:57:34.256Z,95633.47
2018-09-18T16:59:58.875Z,95635.55
2018-09-18T17:02:25.630Z,95637.19
2018-09-18T17:04:52.181Z,95638.64
2018-09-18T17:07:18.904Z,95647.20
2018-09-18T17:09:48.823Z,95646.09
2018-09-18T17:12:15.503Z,95650.39
2018-09-18T17:14:42.137Z,95652.12
2018-09-18T17:17:08.776Z,95650.47
2018-09-18T17:19:35.455Z,95657.23
2018-09-18T17:22:02.121Z,95655.22
2018-09-18T17:24:29.085Z,95662.56
2018-09-18T17:26:55.780Z,95664.55
2018-09-18T17:29:22.423Z,95664.22
2018-09-18T17:31:50.424Z,95669.45
2018-09-18T17:34:15.822Z,95669.66
2018-09-18T17:36:42.424Z,95665.27
2018-09-18T17:39:09.105Z,95674.11
2018-09-18T17:41:35.912Z,95670.05
2018-09-18T17:44:02.538Z,95673.34
2018-09-18T17:46:29.170Z,95674.81
2018-09-18T17:48:55.862Z,95680.86
2018-09-18T17:51:22.507Z,95683.48
2018-09-18T17:53:49.163Z,95687.20
2018-09-18T17:56:15.831Z,95687.41
2018-09-18T17:58:42.485Z,95693.06
2018-09-18T18:01:09.193Z,95692.44
2018-09-18T18:03:35.881Z,95697.50
2018-09-18T18:06:02.617Z,95700.70
2018-09-18T18:08:29.300Z,95698.84
2018-09-18T18:10:57.297Z,95699.60
2018-09-18T18:13:22.636Z,95709.37
2018-09-18T18:15:49.314Z,95705.47
2018-09-18T18:18:15.950Z,95705.80
2018-09-18T18:20:42.716Z,95707.31
2018-09-18T18:23:09.381Z,95710.34
2018-09-18T18:25:36.073Z,95709.53
2018-09-18T18:28:02.722Z,95709.66
2018-09-18T18:30:31.040Z,95710.03
2018-09-18T18:32:56.015Z,95709.66
2018-09-18T18:35:22.799Z,95707.66
2018-09-18T18:37:50.818Z,95714.12
2018-09-18T18:40:16.133Z,95710.11
2018-09-18T18:42:44.150Z,95708.08
2018-09-18T18:45:12.578Z,95714.03
2018-09-18T18:47:39.333Z,95715.55
2018-09-18T18:50:05.932Z,95716.47
2018-09-18T18:52:32.572Z,95720.15
2018-09-18T18:54:59.250Z,95710.02
2018-09-18T18:57:27.879Z,95714.80
2018-09-18T18:59:56.494Z,95713.97
2018-09-18T19:02:25.137Z,95716.73
2018-09-18T19:04:49.793Z,95727.13
2018-09-18T19:07:16.421Z,95716.38
2018-09-18T19:09:43.148Z,95721.05
2018-09-18T19:12:09.900Z,95725.60
2018-09-18T19:14:36.559Z,95725.37
2018-09-18T19:17:03.194Z,95723.86
2018-09-18T19:19:29.845Z,95716.89
2018-09-18T19:21:56.485Z,95717.91
2018-09-18T19:24:23.124Z,95725.00
2018-09-18T19:26:49.841Z,95726.14
2018-09-18T19:29:16.488Z,95728.45
2018-09-18T19:31:43.100Z,95722.88
2018-09-18T19:34:09.728Z,95720.72
2018-09-18T19:36:36.371Z,95723.00
2018-09-18T19:39:06.432Z,95727.31
2018-09-18T19:41:33.043Z,95722.63
2018-09-18T19:43:59.689Z,95725.06
2018-09-18T19:46:26.340Z,95721.77
2018-09-18T19:48:55.995Z,95726.84
2018-09-18T19:51:22.723Z,95725.95
2018-09-18T19:53:49.356Z,95727.34
2018-09-18T19:56:17.041Z,95727.73
2018-09-18T19:58:42.737Z,95734.44
2018-09-18T20:01:09.378Z,95730.77
2018-09-18T20:03:36.091Z,95734.81
2018-09-18T20:06:02.799Z,95732.41
2018-09-18T20:08:30.515Z,95740.17
2018-09-18T20:10:56.077Z,95746.63
2018-09-18T20:13:22.719Z,95743.37
2018-09-18T20:15:49.407Z,95744.51
2018-09-18T20:18:16.044Z,95745.27
2018-09-18T20:20:42.705Z,95757.68
2018-09-18T20:23:09.376Z,95755.27
2018-09-18T20:25:35.997Z,95760.75
2018-09-18T20:28:02.955Z,95756.92
2018-09-18T20:30:29.612Z,95762.02
2018-09-18T20:32:56.299Z,95757.58
2018-09-18T20:35:22.955Z,95760.50
2018-09-18T20:37:49.649Z,95762.65
2018-09-18T20:40:16.269Z,95762.07
2018-09-18T20:42:42.909Z,95762.05
2018-09-18T20:45:09.551Z,95766.60
2018-09-18T20:47:39.027Z,95763.69
2018-09-18T20:50:05.678Z,95769.14
2018-09-18T20:52:32.313Z,95768.53
2018-09-18T20:54:58.965Z,95762.83
2018-09-18T20:57:25.599Z,95766.78
2018-09-18T20:59:52.269Z,95774.76
2018-09-18T21:02:18.912Z,95770.08
2018-09-18T21:04:45.576Z,95772.13
2018-09-18T21:07:12.189Z,95771.19
2018-09-18T21:09:38.835Z,95770.83
2018-09-18T21:12:05.488Z,95770.61
2018-09-18T21:14:32.182Z,95779.17
2018-09-18T21:16:58.842Z,95778.99
2018-09-18T21:19:25.480Z,95778.05
2018-09-18T21:21:55.107Z,95776.66
2018-09-18T21:24:21.737Z,95773.92
2018-09-18T21:26:48.380Z,95775.30
2018-09-18T21:29:16.915Z,95772.25
2018-09-18T21:31:41.648Z,95775.55
2018-09-18T21:34:08.280Z,95776.94
2018-09-18T21:36:34.921Z,95776.59
2018-09-18T21:39:01.560Z,95778.98
2018-09-18T21:41:28.236Z,95781.05
2018-09-18T21:43:54.951Z,95772.69
2018-09-18T21:46:21.516Z,95774.81
2018-09-18T21:48:52.227Z,95770.63
2018-09-18T21:51:18.853Z,95769.91
2018-09-18T21:53:45.563Z,95770.78
2018-09-18T21:56:15.406Z,95771.16
2018-09-18T21:58:42.057Z,95779.27
2018-09-18T22:01:08.809Z,95780.13
2018-09-18T22:03:35.615Z,95777.87
2018-09-18T22:06:02.258Z,95787.12
2018-09-18T22:08:28.889Z,95778.37
2018-09-18T22:10:55.619Z,95779.77
2018-09-18T22:13:22.259Z,95779.92
2018-09-18T22:15:48.981Z,95771.97
2018-09-18T22:18:15.655Z,95772.47
2018-09-18T22:20:42.342Z,95770.80
2018-09-18T22:23:08.990Z,95775.55
2018-09-18T22:25:35.634Z,95775.39
2018-09-18T22:28:02.276Z,95777.70
2018-09-18T22:30:28.919Z,95781.34
2018-09-18T22:32:55.598Z,95776.93
2018-09-18T22:35:22.281Z,95781.11
2018-09-18T22:37:51.945Z,95781.39
2018-09-18T22:40:18.595Z,95781.61
2018-09-18T22:42:45.334Z,95779.08
2018-09-18T22:45:12.016Z,95778.07
2018-09-18T22:47:39.871Z,95785.20
2018-09-18T22:50:07.673Z,95778.64
2018-09-18T22:52:34.416Z,95781.78
2018-09-18T22:55:01.159Z,95778.85
2018-09-18T22:57:27.902Z,95776.47
2018-09-18T22:59:54.504Z,95781.17
2018-09-18T23:02:21.172Z,95778.77
2018-09-18T23:04:47.813Z,95782.59
2018-09-18T23:07:14.484Z,95784.72
2018-09-18T23:09:41.359Z,95783.86
2018-09-18T23:12:08.049Z,95783.70
2018-09-18T23:14:34.727Z,95780.80
2018-09-18T23:17:01.410Z,95783.60
2018-09-18T23:19:28.487Z,95784.48
2018-09-18T23:21:57.312Z,95786.88
2018-09-18T23:24:21.852Z,95791.19
2018-09-18T23:26:49.762Z,95794.35
2018-09-18T23:29:16.413Z,95795.88
2018-09-18T23:31:43.055Z,95792.96
2018-09-18T23:34:09.799Z,95796.88
2018-09-18T23:36:36.468Z,95791.96
2018-09-18T23:39:03.105Z,95794.36
2018-09-18T23:41:29.759Z,95796.27
2018-09-18T23:43:56.391Z,95808.67
2018-09-18T23:46:23.029Z,95804.40
2018-09-18T23:48:49.665Z,95804.42
2018-09-18T23:51:19.056Z,95804.80
2018-09-18T23:53:45.699Z,95806.67
2018-09-18T23:56:25.803Z,95799.47
2018-09-18T23:58:52.449Z,95801.73
